Time;durP1;ratioP1;P1;durP2;ratioP2;P2;SDS_P1;SDS_P2;PMS_P1;PMS_P2;Temp;Humidity;BMP_temperature;BMP_pressure;BME280_temperature;BME280_humidity;BME280_pressure;Samples;Min_cycle;Max_cycle;Signal;HPM_P1;HPM_P2
2021/06/22 15:49:26;;;;;;;14.60;7.72;;;;;;;21.89;65.02;101153.19;5089540;27;20775;-68
2021/06/22 15:51:54;;;;;;;12.10;8.23;;;;;;;20.39;70.20;101163.53;5089536;28;20044;-68
2021/06/22 15:54:21;;;;;;;11.88;8.90;;;;;;;19.39;73.70;101167.97;5089268;28;20131;-68
2021/06/22 15:56:48;;;;;;;13.27;9.20;;;;;;;18.53;78.30;101196.22;5089375;28;20052;-68
2021/06/22 15:59:14;;;;;;;;;;;;;;;17.85;81.47;101191.06;5089990;28;20056;-68
2021/06/22 16:01:43;;;;;;;13.80;8.90;;;;;;;17.66;81.95;101182.94;5089360;28;20491;-68
2021/06/22 16:04:10;;;;;;;16.60;8.88;;;;;;;17.51;82.78;101177.06;5088996;28;20048;-68
2021/06/22 16:06:38;;;;;;;11.27;8.07;;;;;;;17.47;82.90;101167.72;5089594;28;20044;-68
2021/06/22 16:09:05;;;;;;;11.35;8.57;;;;;;;17.20;83.70;101142.59;5089124;28;20059;-69
2021/06/22 16:11:32;;;;;;;16.48;8.98;;;;;;;17.08;84.02;101128.59;5089144;28;20063;-69
2021/06/22 16:13:59;;;;;;;14.68;9.02;;;;;;;16.93;85.41;101129.78;5089226;28;20055;-69
2021/06/22 16:16:25;;;;;;;;;;;;;;;16.85;84.61;101075.19;5089870;28;20056;-69
2021/06/22 16:18:52;;;;;;;;;;;;;;;16.83;85.41;101014.03;5089497;28;19920;-69
2021/06/22 16:21:18;;;;;;;;;;;;;;;16.91;84.79;100974.00;5089044;28;19920;-71
2021/06/22 16:23:47;;;;;;;16.33;10.23;;;;;;;17.14;83.58;101017.72;5088921;28;19920;-70
2021/06/22 16:26:14;;;;;;;15.95;10.73;;;;;;;17.18;83.58;101048.06;5088995;28;20048;-70
2021/06/22 16:28:40;;;;;;;13.98;10.50;;;;;;;17.25;83.70;101098.38;5089128;28;20410;-71
2021/06/22 16:31:07;;;;;;;14.43;10.02;;;;;;;17.09;84.42;101124.19;5088489;28;20059;-70
2021/06/22 16:33:34;;;;;;;;;;;;;;;17.22;84.09;101118.84;5089432;28;20048;-71
2021/06/22 16:36:00;;;;;;;;;;;;;;;17.18;85.28;101118.22;5089238;28;19920;-71
2021/06/22 16:38:27;;;;;;;14.98;10.20;;;;;;;17.30;84.19;101133.06;5089063;28;19926;-70
2021/06/22 16:40:55;;;;;;;11.77;10.13;;;;;;;17.36;84.09;101147.50;5088666;28;20398;-71
2021/06/22 16:43:22;;;;;;;17.02;10.82;;;;;;;17.27;85.29;101150.88;5088628;28;20052;-70
2021/06/22 16:45:49;;;;;;;;;;;;;;;17.51;83.66;101164.72;5089105;28;20048;-70
2021/06/22 16:48:15;;;;;;;;;;;;;;;17.36;84.93;101166.75;5088418;28;19920;-70
2021/06/22 16:50:44;;;;;;;12.82;9.35;;;;;;;17.45;84.17;101181.00;5088734;28;19920;-70
2021/06/22 16:53:11;;;;;;;14.68;9.70;;;;;;;17.37;85.28;101200.00;5088467;28;20052;-70
2021/06/22 16:55:38;;;;;;;13.23;9.82;;;;;;;17.56;83.83;101193.31;5088379;28;20056;-70
2021/06/22 16:58:08;;;;;;;10.27;8.68;;;;;;;17.54;83.02;101197.84;5087879;28;20040;-70
2021/06/22 17:00:37;;;;;;;14.75;8.77;;;;;;;17.32;84.59;101211.84;5075159;28;20049;-71
2021/06/22 17:03:05;;;;;;;11.88;8.50;;;;;;;17.11;84.33;101201.13;5074754;28;20059;-70
2021/06/22 17:05:32;;;;;;;11.48;8.40;;;;;;;17.11;85.24;101204.63;5060277;28;20045;-70
2021/06/22 17:08:00;;;;;;;9.38;8.07;;;;;;;17.26;84.15;101184.19;5054321;28;20044;-71
2021/06/22 17:10:28;;;;;;;11.40;7.93;;;;;;;17.15;84.33;101185.00;5054727;28;20099;-71
2021/06/22 17:12:58;;;;;;;9.95;8.25;;;;;;;16.85;85.28;101175.03;5054549;28;20536;-70
2021/06/22 17:15:28;;;;;;;11.18;8.68;;;;;;;16.95;84.99;101173.41;5054535;28;20075;-70
2021/06/22 17:17:55;;;;;;;13.43;8.35;;;;;;;16.95;85.59;101169.91;5054351;28;20048;-71
2021/06/22 17:20:24;;;;;;;13.40;8.20;;;;;;;17.03;84.80;101154.41;5054346;28;20135;-70
2021/06/22 17:22:52;;;;;;;13.05;7.72;;;;;;;17.07;84.33;101147.13;5054377;28;20053;-70
2021/06/22 17:25:21;;;;;;;9.52;7.80;;;;;;;17.26;84.02;101167.59;5053985;28;20053;-70
2021/06/22 17:27:48;;;;;;;11.48;7.97;;;;;;;17.04;85.48;101169.22;5054204;28;20511;-70
2021/06/22 17:30:16;;;;;;;10.77;8.23;;;;;;;16.97;85.95;101173.25;5054184;28;20056;-70
2021/06/22 17:32:45;;;;;;;11.93;8.65;;;;;;;16.86;87.04;101176.72;5054485;28;20056;-70
2021/06/22 17:35:13;;;;;;;13.00;8.18;;;;;;;16.90;87.31;101206.22;5054198;28;20065;-70
2021/06/22 17:37:40;;;;;;;9.57;7.72;;;;;;;17.23;85.53;101217.78;5053961;28;20045;-70
2021/06/22 17:40:09;;;;;;;15.35;8.35;;;;;;;17.32;85.28;101230.25;5053965;28;20051;-70
2021/06/22 17:42:36;;;;;;;15.75;8.27;;;;;;;17.44;84.63;101226.66;5053941;28;20412;-69
2021/06/22 17:45:03;;;;;;;;;;;;;;;17.35;85.47;101220.31;5054103;28;20506;-70
2021/06/22 17:47:30;;;;;;;8.00;6.50;;;;;;;17.62;82.35;101224.41;5053770;28;19921;-69
2021/06/22 17:49:58;;;;;;;;;;;;;;;17.65;82.59;101232.09;5054526;28;20422;-71
2021/06/22 17:52:25;;;;;;;9.00;6.22;;;;;;;17.46;83.35;101232.66;5054062;28;19927;-69
2021/06/22 17:54:52;;;;;;;8.77;5.70;;;;;;;17.31;83.97;101254.84;5053749;28;20045;-69
2021/06/22 17:57:18;;;;;;;;;;;;;;;17.17;85.12;101255.91;5054227;28;20060;-70
2021/06/22 17:59:45;;;;;;;;;;;;;;;16.97;85.79;101255.59;5054429;28;19920;-70
2021/06/22 18:02:12;;;;;;;;;;;;;;;17.13;85.59;101263.16;5054081;28;19920;-71
2021/06/22 18:04:39;;;;;;;9.80;6.28;;;;;;;17.26;85.72;101272.75;5061011;28;19947;-71
2021/06/22 18:07:07;;;;;;;10.18;5.72;;;;;;;17.11;84.99;101278.25;5073320;28;20055;-71
2021/06/22 18:09:34;;;;;;;7.78;5.32;;;;;;;16.96;85.18;101282.00;5073329;28;20047;-71
2021/06/22 18:12:01;;;;;;;6.30;5.03;;;;;;;17.21;83.83;101281.00;5072064;28;20052;-71
2021/06/22 18:14:28;;;;;;;6.65;4.80;;;;;;;17.32;83.34;101277.59;5073491;28;20063;-70
2021/06/22 18:16:54;;;;;;;;;;;;;;;17.06;84.43;101282.13;5074114;28;20059;-70
2021/06/22 18:19:21;;;;;;;7.65;4.63;;;;;;;17.28;83.35;101290.09;5073203;28;19920;-71
2021/06/22 18:21:48;;;;;;;;;;;;;;;17.15;83.13;101287.56;5073593;28;20063;-70
2021/06/22 18:24:16;;;;;;;;;;;;;;;17.05;83.18;101276.03;5073720;28;19924;-71
2021/06/22 18:26:43;;;;;;;9.45;3.92;;;;;;;17.05;81.95;101275.22;5073106;28;20294;-71
2021/06/22 18:29:10;;;;;;;6.82;3.92;;;;;;;16.97;82.87;101299.44;5072781;28;20411;-71
2021/06/22 18:31:37;;;;;;;7.63;4.32;;;;;;;17.08;82.37;101315.25;5073056;28;20059;-71
2021/06/22 18:34:03;;;;;;;;;;;;;;;16.82;84.42;101313.69;5073528;28;20465;-71
2021/06/22 18:36:30;;;;;;;7.85;4.43;;;;;;;16.83;84.09;101324.09;5073152;28;19931;-70
2021/06/22 18:38:57;;;;;;;5.53;4.25;;;;;;;16.82;83.91;101327.66;5072785;28;20387;-70
2021/06/22 18:41:25;;;;;;;8.80;4.15;;;;;;;16.58;84.24;101327.59;5073082;28;20048;-71
2021/06/22 18:43:52;;;;;;;6.50;4.25;;;;;;;16.29;86.18;101316.53;5073061;28;20049;-70
2021/06/22 18:46:19;;;;;;;7.47;4.00;;;;;;;16.56;85.66;101308.50;5072425;28;20059;-71
2021/06/22 18:48:46;;;;;;;5.47;4.10;;;;;;;16.64;84.54;101305.31;5072419;28;20044;-69
2021/06/22 18:51:13;;;;;;;10.82;4.28;;;;;;;16.68;84.03;101297.09;5072719;28;20056;-69
2021/06/22 18:53:40;;;;;;;5.32;4.18;;;;;;;16.53;85.04;101306.09;5072607;28;20446;-69
2021/06/22 18:56:06;;;;;;;;;;;;;;;16.44;85.34;101297.09;5072984;28;20048;-70
2021/06/22 18:58:35;;;;;;;7.72;4.38;;;;;;;16.21;86.50;101303.97;5072725;28;19920;-71
2021/06/22 19:01:01;;;;;;;7.10;3.92;;;;;;;16.38;85.78;101310.63;5072230;28;20048;-69
2021/06/22 19:03:28;;;;;;;6.18;3.88;;;;;;;16.38;85.60;101318.50;5072464;28;20049;-69
2021/06/22 19:05:55;;;;;;;7.57;4.32;;;;;;;16.30;86.12;101320.84;5054867;28;20060;-70
2021/06/22 19:08:22;;;;;;;8.75;4.57;;;;;;;16.26;86.22;101314.13;5052089;28;20056;-71
2021/06/22 19:10:48;;;;;;;5.65;4.18;;;;;;;16.17;87.25;101302.47;5052518;28;20052;-69
2021/06/22 19:13:15;;;;;;;7.55;4.75;;;;;;;16.14;87.21;101305.31;5050558;28;20076;-70
2021/06/22 19:15:44;;;;;;;6.28;4.38;;;;;;;16.06;87.65;101318.97;5052032;28;20044;-70
2021/06/22 19:18:10;;;;;;;10.95;4.95;;;;;;;15.90;88.42;101318.34;5052223;28;20080;-69
2021/06/22 19:20:37;;;;;;;7.55;5.13;;;;;;;15.87;89.25;101308.91;5052383;28;20044;-69
2021/06/22 19:23:04;;;;;;;8.20;4.90;;;;;;;16.01;88.65;101305.34;5051608;28;20053;-69
2021/06/22 19:25:31;;;;;;;;;;;;;;;16.10;87.92;101311.72;5056095;28;20045;-69
2021/06/22 19:27:58;;;;;;;;;;;;;;;16.11;87.99;101305.53;5063812;28;19927;-70
2021/06/22 19:30:24;;;;;;;;;;;;;;;16.26;87.44;101308.88;5060129;28;19921;-70
2021/06/22 19:32:53;;;;;;;7.50;4.75;;;;;;;16.25;87.94;101305.41;5051957;28;19960;-70
2021/06/22 19:35:20;;;;;;;6.72;4.85;;;;;;;16.35;87.86;101312.66;5069943;28;20049;-70
2021/06/22 19:37:49;;;;;;;;;;;;;;;16.40;87.07;101307.91;5072405;28;20560;-70
2021/06/22 19:40:18;;;;;;;6.10;4.68;;;;;;;16.42;86.63;101316.53;5071968;28;19927;-70
2021/06/22 19:42:46;;;;;;;7.85;5.35;;;;;;;16.29;88.14;101334.94;5063205;28;20051;-70
2021/06/22 19:45:14;;;;;;;11.30;5.75;;;;;;;16.26;88.61;101329.88;5051664;28;20495;-70
2021/06/22 19:47:41;;;;;;;6.85;5.40;;;;;;;16.28;88.66;101336.69;5051711;28;20068;-70
2021/06/22 19:50:09;;;;;;;;;;;;;;;16.59;87.13;101336.31;5052113;28;20048;-69
2021/06/22 19:52:36;;;;;;;6.18;5.32;;;;;;;16.56;86.50;101337.38;5051863;28;19936;-70
2021/06/22 19:55:04;;;;;;;6.53;5.30;;;;;;;16.45;87.23;101342.56;5051884;28;20053;-70
2021/06/22 19:57:31;;;;;;;10.23;4.88;;;;;;;16.52;86.29;101347.28;5051685;28;20148;-70
2021/06/22 19:59:58;;;;;;;;;;;;;;;16.47;86.23;101351.19;5061692;28;20578;-69
2021/06/22 20:02:25;;;;;;;;;;;;;;;16.09;88.77;101354.69;5072484;28;19920;-67
2021/06/22 20:04:52;;;;;;;6.18;5.03;;;;;;;15.98;89.11;101351.94;5072093;28;19921;-68
2021/06/22 20:07:20;;;;;;;6.85;5.30;;;;;;;16.09;88.25;101346.81;5071276;28;20403;-69
2021/06/22 20:09:47;;;;;;;6.30;5.20;;;;;;;16.07;87.91;101339.03;5071819;28;20048;-69
2021/06/22 20:12:15;;;;;;;9.55;5.85;;;;;;;15.86;89.12;101345.75;5071775;28;20071;-69
2021/06/22 20:14:47;;;;;;;8.27;5.57;;;;;;;15.80;88.86;101335.66;5071631;28;20557;-70
2021/06/22 20:17:15;;;;;;;7.15;4.95;;;;;;;15.79;88.90;101333.97;5071719;28;20052;-70
2021/06/22 20:19:41;;;;;;;7.05;4.90;;;;;;;15.85;88.19;101338.81;5071368;28;20487;-69
2021/06/22 20:22:08;;;;;;;7.90;5.82;;;;;;;15.68;88.84;101351.25;5071276;28;20067;-69
2021/06/22 20:24:36;;;;;;;6.50;5.47;;;;;;;15.73;88.53;101355.41;5071529;28;20509;-69
2021/06/22 20:27:04;;;;;;;8.38;5.10;;;;;;;15.68;88.66;101379.28;5071567;28;20055;-69
2021/06/22 20:29:32;;;;;;;8.20;5.25;;;;;;;15.87;87.82;101371.03;5071582;28;20048;-69
2021/06/22 20:31:59;;;;;;;8.07;5.30;;;;;;;15.84;87.96;101366.84;5071169;28;20139;-69
2021/06/22 20:34:25;;;;;;;;;;;;;;;15.80;88.13;101375.00;5060034;28;20064;-70
2021/06/22 20:36:52;;;;;;;;;;;;;;;15.63;88.90;101382.19;5055990;28;19928;-69
2021/06/22 20:39:19;;;;;;;7.38;4.80;;;;;;;15.60;89.51;101386.81;5055250;28;19924;-70
2021/06/22 20:41:47;;;;;;;7.20;4.85;;;;;;;15.65;88.96;101382.94;5055463;28;20060;-69
2021/06/22 20:44:15;;;;;;;5.72;4.65;;;;;;;15.75;88.44;101382.34;5054649;28;20045;-69
2021/06/22 20:46:42;;;;;;;6.97;5.65;;;;;;;15.74;88.14;101381.50;5054997;28;20106;-69
2021/06/22 20:49:09;;;;;;;;;;;;;;;15.57;88.30;101382.63;5055050;28;20049;-69
2021/06/22 20:51:37;;;;;;;9.05;5.82;;;;;;;15.75;88.00;101383.22;5054871;28;20298;-69
2021/06/22 20:54:04;;;;;;;10.05;5.07;;;;;;;15.59;88.83;101374.63;5054531;28;20499;-69
2021/06/22 20:56:31;;;;;;;11.15;5.00;;;;;;;15.67;88.34;101373.19;5054891;28;20514;-69
2021/06/22 20:58:59;;;;;;;6.97;4.95;;;;;;;15.50;89.14;101370.84;5055117;28;20052;-68
2021/06/22 21:01:26;;;;;;;6.88;4.18;;;;;;;15.63;88.12;101378.75;5054396;28;20060;-69
2021/06/22 21:03:53;;;;;;;;;;;;;;;15.64;87.95;101372.53;5059408;28;20380;-68
2021/06/22 21:06:20;;;;;;;;;;;;;;;15.53;87.99;101373.25;5069579;28;19920;-68
2021/06/22 21:08:47;;;;;;;;;;;;;;;15.46;88.37;101385.94;5075311;28;20019;-69
2021/06/22 21:11:14;;;;;;;8.07;3.70;;;;;;;15.40;88.33;101394.19;5072154;28;19920;-68
2021/06/22 21:13:41;;;;;;;3.97;3.58;;;;;;;15.40;87.86;101396.81;5054446;28;20526;-68
2021/06/22 21:16:09;;;;;;;11.70;4.20;;;;;;;15.25;88.50;101393.41;5054268;28;20063;-69
2021/06/22 21:18:36;;;;;;;6.95;4.03;;;;;;;15.30;87.57;101392.28;5054686;28;20178;-69
2021/06/22 21:21:03;;;;;;;;;;;;;;;15.20;87.93;101387.63;5067673;28;20379;-69
2021/06/22 21:23:30;;;;;;;;;;;;;;;15.14;88.07;101385.41;5074769;28;19928;-69
2021/06/22 21:25:56;;;;;;;3.47;3.15;;;;;;;15.00;88.74;101394.16;5074302;28;20433;-69
2021/06/22 21:28:23;;;;;;;9.40;3.42;;;;;;;15.03;87.70;101398.38;5074063;28;20060;-69
2021/06/22 21:30:50;;;;;;;4.68;2.95;;;;;;;14.93;88.12;101395.47;5074159;28;20048;-69
2021/06/22 21:33:18;;;;;;;;;;;;;;;14.83;89.02;101407.47;5074628;28;20049;-69
2021/06/22 21:35:45;;;;;;;4.13;2.67;;;;;;;14.91;88.20;101405.22;5074529;28;19927;-70
2021/06/22 21:38:12;;;;;;;3.58;2.40;;;;;;;15.06;87.36;101402.56;5060287;28;20060;-68
2021/06/22 21:40:39;;;;;;;;;;;;;;;15.05;87.65;101404.31;5054412;28;20056;-68
2021/06/22 21:43:05;;;;;;;5.93;2.20;;;;;;;14.91;88.23;101404.38;5053798;28;20295;-69
2021/06/22 21:45:32;;;;;;;2.35;2.13;;;;;;;14.97;87.49;101417.91;5053597;28;20056;-69
2021/06/22 21:47:59;;;;;;;3.70;2.20;;;;;;;14.67;89.33;101418.06;5053790;28;20048;-69
2021/06/22 21:50:28;;;;;;;4.97;2.40;;;;;;;14.80;88.38;101410.28;5053850;28;20415;-69
2021/06/22 21:52:55;;;;;;;4.75;2.22;;;;;;;14.89;87.75;101416.72;5053777;28;20135;-69
2021/06/22 21:55:22;;;;;;;3.13;2.20;;;;;;;14.72;88.57;101423.88;5053788;28;20056;-70
2021/06/22 21:57:50;;;;;;;6.50;2.25;;;;;;;14.72;88.72;101417.75;5053821;28;20060;-70
2021/06/22 22:00:18;;;;;;;3.42;1.92;;;;;;;14.68;88.64;101432.00;5053399;28;20561;-69
2021/06/22 22:02:45;;;;;;;2.90;1.98;;;;;;;14.66;88.72;101429.47;5053830;28;20053;-69
2021/06/22 22:05:12;;;;;;;3.35;1.98;;;;;;;14.74;88.04;101423.75;5053366;28;20392;-69
2021/06/22 22:07:41;;;;;;;2.17;1.83;;;;;;;14.52;89.53;101422.44;5053625;28;20056;-70
2021/06/22 22:10:09;;;;;;;3.58;2.13;;;;;;;14.47;89.62;101431.50;5053499;28;20045;-70
2021/06/22 22:12:36;;;;;;;3.47;2.15;;;;;;;14.33;90.61;101438.41;5069383;28;20044;-69
2021/06/22 22:15:03;;;;;;;9.60;2.38;;;;;;;14.33;90.74;101442.78;5073187;28;20055;-69
2021/06/22 22:17:30;;;;;;;2.17;1.98;;;;;;;14.42;89.97;101451.88;5073602;28;20044;-69
2021/06/22 22:19:57;;;;;;;9.27;2.40;;;;;;;14.34;89.57;101460.19;5073323;28;20413;-69
2021/06/22 22:22:24;;;;;;;2.88;2.20;;;;;;;14.37;89.52;101450.38;5073288;28;20044;-69
2021/06/22 22:24:52;;;;;;;5.55;3.28;;;;;;;14.22;90.46;101456.50;5073168;28;20052;-69
2021/06/22 22:27:19;;;;;;;5.60;3.38;;;;;;;14.25;90.27;101455.50;5073246;28;20052;-70
2021/06/22 22:29:46;;;;;;;;;;;;;;;14.25;89.73;101461.56;5073691;28;20056;-68
2021/06/22 22:32:12;;;;;;;7.18;4.00;;;;;;;14.41;89.32;101469.38;5073069;28;19924;-68
2021/06/22 22:34:39;;;;;;;7.60;4.00;;;;;;;14.28;89.79;101471.00;5073342;28;20048;-70
2021/06/22 22:37:06;;;;;;;5.35;3.40;;;;;;;14.19;90.20;101472.41;5072658;28;20506;-68
2021/06/22 22:39:33;;;;;;;7.15;3.33;;;;;;;14.28;89.40;101471.88;5073163;28;20044;-69
2021/06/22 22:42:01;;;;;;;5.85;3.45;;;;;;;14.09;90.46;101466.84;5072508;28;20045;-69
2021/06/22 22:44:28;;;;;;;5.45;2.50;;;;;;;14.16;90.13;101464.75;5072953;28;20055;-69
2021/06/22 22:46:55;;;;;;;13.70;3.40;;;;;;;14.00;90.99;101475.25;5073312;28;20056;-69
2021/06/22 22:49:23;;;;;;;3.42;2.30;;;;;;;14.09;90.16;101473.88;5072408;28;20057;-69
2021/06/22 22:51:51;;;;;;;1.98;1.77;;;;;;;14.26;89.93;101478.13;5072587;28;20097;-69
2021/06/22 22:54:18;;;;;;;1.90;1.75;;;;;;;14.13;90.57;101476.22;5072404;28;20052;-69
2021/06/22 22:56:44;;;;;;;;;;;;;;;14.09;90.33;101481.72;5072514;28;20387;-69
2021/06/22 22:59:12;;;;;;;2.97;2.28;;;;;;;14.04;90.25;101474.13;5072304;28;20370;-69
2021/06/22 23:01:39;;;;;;;2.20;2.00;;;;;;;14.14;89.98;101469.22;5072686;28;20051;-68
2021/06/22 23:04:06;;;;;;;3.33;2.03;;;;;;;13.96;90.61;101480.75;5072149;28;20049;-68
2021/06/22 23:06:33;;;;;;;;;;;;;;;14.07;90.40;101480.97;5072863;28;20056;-68
2021/06/22 23:09:00;;;;;;;4.25;1.83;;;;;;;14.08;90.11;101493.97;5072384;28;19920;-68
2021/06/22 23:11:27;;;;;;;3.40;2.00;;;;;;;14.18;89.43;101501.28;5065555;28;20052;-68
2021/06/22 23:13:54;;;;;;;3.42;1.90;;;;;;;14.00;90.95;101514.50;5052373;28;20546;-68
2021/06/22 23:16:22;;;;;;;3.63;1.80;;;;;;;14.02;90.54;101514.41;5052389;28;20079;-68
2021/06/22 23:18:49;;;;;;;2.65;2.00;;;;;;;14.05;90.35;101502.00;5052455;28;20045;-68
2021/06/22 23:21:16;;;;;;;2.78;2.28;;;;;;;13.86;90.95;101502.19;5052239;28;20045;-69
2021/06/22 23:23:42;;;;;;;6.00;2.70;;;;;;;13.89;90.93;101502.00;5052496;28;20072;-69
2021/06/22 23:26:09;;;;;;;7.00;2.22;;;;;;;13.75;91.65;101501.13;5052248;28;20075;-68
2021/06/22 23:28:37;;;;;;;3.15;2.10;;;;;;;13.89;91.17;101504.63;5052406;28;20052;-69
2021/06/22 23:31:04;;;;;;;2.47;2.28;;;;;;;13.84;90.96;101511.06;5051769;28;20080;-68
2021/06/22 23:33:32;;;;;;;3.90;2.28;;;;;;;13.89;90.51;101511.63;5051985;28;20055;-68
2021/06/22 23:35:59;;;;;;;4.68;1.92;;;;;;;13.94;90.75;101510.44;5051798;28;20048;-68
2021/06/22 23:38:25;;;;;;;8.27;2.13;;;;;;;14.00;90.17;101504.03;5052275;28;20059;-68
2021/06/22 23:40:52;;;;;;;2.42;2.00;;;;;;;13.89;90.71;101502.00;5052063;28;20237;-69
2021/06/22 23:43:19;;;;;;;3.13;1.90;;;;;;;13.86;90.86;101506.59;5051937;28;20059;-68
2021/06/22 23:45:48;;;;;;;2.47;1.67;;;;;;;13.71;91.63;101511.75;5051939;28;20415;-68
2021/06/22 23:48:15;;;;;;;4.32;2.25;;;;;;;13.70;91.64;101504.84;5051684;28;20065;-68
2021/06/22 23:50:43;;;;;;;9.82;2.38;;;;;;;13.69;91.64;101508.41;5052179;28;20049;-69
2021/06/22 23:53:10;;;;;;;2.83;1.92;;;;;;;13.89;90.80;101501.19;5051517;28;20045;-68
2021/06/22 23:55:38;;;;;;;2.78;1.90;;;;;;;13.85;90.34;101507.53;5052254;28;20064;-68
2021/06/22 23:58:05;;;;;;;3.47;1.92;;;;;;;13.79;91.02;101515.72;5051567;28;20055;-69
